Metar z pełnej godziny Komunikat METAR ze strony awiacja.imgw.pl Metar G00 EPBY METAR EPBY 162200Z 14004KT 9000 FEW019 BKN022 OVC025 M02/M03 Q1018 R26/590194 =